sensor_id;sensor_type;location;lat;lon;timestamp;P1;durP1;ratioP1;P2;durP2;ratioP2
76826;SDS011;65788;52.284;20.890;2024-01-11T00:01:37;26.90;;;18.50;;
76826;SDS011;65788;52.284;20.890;2024-01-11T00:03:15;28.10;;;20.20;;
76826;SDS011;65788;52.284;20.890;2024-01-11T00:04:52;28.80;;;18.90;;
76826;SDS011;65788;52.284;20.890;2024-01-11T00:06:29;29.30;;;18.90;;
76826;SDS011;65788;52.284;20.890;2024-01-11T00:08:06;27.30;;;18.90;;
76826;SDS011;65788;52.284;20.890;2024-01-11T00:09:44;29.90;;;19.40;;
76826;SDS011;65788;52.284;20.890;2024-01-11T00:11:31;27.50;;;18.40;;
76826;SDS011;65788;52.284;20.890;2024-01-11T00:13:09;27.30;;;19.00;;
76826;SDS011;65788;52.284;20.890;2024-01-11T00:14:49;25.80;;;18.00;;
76826;SDS011;65788;52.284;20.890;2024-01-11T00:16:37;29.00;;;20.10;;
76826;SDS011;65788;52.284;20.890;2024-01-11T00:18:14;29.70;;;19.70;;
76826;SDS011;65788;52.284;20.890;2024-01-11T00:21:30;28.30;;;18.10;;
76826;SDS011;65788;52.284;20.890;2024-01-11T00:23:09;29.10;;;18.60;;
76826;SDS011;65788;52.284;20.890;2024-01-11T00:24:50;28.00;;;19.30;;
76826;SDS011;65788;52.284;20.890;2024-01-11T00:26:30;31.30;;;19.20;;
76826;SDS011;65788;52.284;20.890;2024-01-11T00:28:07;29.70;;;19.50;;
76826;SDS011;65788;52.284;20.890;2024-01-11T00:29:47;31.10;;;20.40;;
76826;SDS011;65788;52.284;20.890;2024-01-11T00:31:25;30.30;;;20.20;;
76826;SDS011;65788;52.284;20.890;2024-01-11T00:33:04;27.80;;;18.80;;
76826;SDS011;65788;52.284;20.890;2024-01-11T00:34:41;28.80;;;19.40;;
76826;SDS011;65788;52.284;20.890;2024-01-11T00:36:18;27.30;;;18.40;;
76826;SDS011;65788;52.284;20.890;2024-01-11T00:37:58;30.50;;;19.80;;
76826;SDS011;65788;52.284;20.890;2024-01-11T00:39:38;27.60;;;19.50;;
76826;SDS011;65788;52.284;20.890;2024-01-11T00:41:16;27.70;;;19.40;;
76826;SDS011;65788;52.284;20.890;2024-01-11T00:42:56;26.90;;;18.00;;
76826;SDS011;65788;52.284;20.890;2024-01-11T00:44:34;28.90;;;18.60;;
76826;SDS011;65788;52.284;20.890;2024-01-11T00:46:12;29.20;;;18.40;;
76826;SDS011;65788;52.284;20.890;2024-01-11T00:47:50;28.00;;;19.10;;
76826;SDS011;65788;52.284;20.890;2024-01-11T00:49:27;27.30;;;19.60;;
76826;SDS011;65788;52.284;20.890;2024-01-11T00:51:04;25.90;;;18.30;;
76826;SDS011;65788;52.284;20.890;2024-01-11T00:52:44;27.80;;;19.30;;
76826;SDS011;65788;52.284;20.890;2024-01-11T00:54:22;26.50;;;18.60;;
76826;SDS011;65788;52.284;20.890;2024-01-11T00:56:01;26.60;;;18.80;;
76826;SDS011;65788;52.284;20.890;2024-01-11T00:57:38;27.60;;;19.20;;
76826;SDS011;65788;52.284;20.890;2024-01-11T00:59:16;26.10;;;19.10;;
76826;SDS011;65788;52.284;20.890;2024-01-11T01:01:02;29.90;;;19.20;;
76826;SDS011;65788;52.284;20.890;2024-01-11T01:02:40;27.60;;;19.50;;
76826;SDS011;65788;52.284;20.890;2024-01-11T01:04:18;27.90;;;19.00;;
76826;SDS011;65788;52.284;20.890;2024-01-11T01:05:57;29.10;;;19.40;;
76826;SDS011;65788;52.284;20.890;2024-01-11T01:07:42;29.60;;;19.30;;
76826;SDS011;65788;52.284;20.890;2024-01-11T01:09:20;25.50;;;18.50;;
76826;SDS011;65788;52.284;20.890;2024-01-11T01:12:40;27.70;;;18.10;;
76826;SDS011;65788;52.284;20.890;2024-01-11T01:14:17;27.70;;;18.20;;
76826;SDS011;65788;52.284;20.890;2024-01-11T01:15:54;28.00;;;19.00;;
76826;SDS011;65788;52.284;20.890;2024-01-11T01:17:32;28.90;;;20.20;;
76826;SDS011;65788;52.284;20.890;2024-01-11T01:19:10;26.90;;;18.70;;
76826;SDS011;65788;52.284;20.890;2024-01-11T01:20:47;29.10;;;19.40;;
76826;SDS011;65788;52.284;20.890;2024-01-11T01:22:24;29.90;;;19.70;;
76826;SDS011;65788;52.284;20.890;2024-01-11T01:24:01;30.60;;;19.50;;
76826;SDS011;65788;52.284;20.890;2024-01-11T01:25:40;28.20;;;18.60;;
76826;SDS011;65788;52.284;20.890;2024-01-11T01:27:16;28.30;;;19.00;;
76826;SDS011;65788;52.284;20.890;2024-01-11T01:28:56;26.40;;;19.20;;
76826;SDS011;65788;52.284;20.890;2024-01-11T01:30:36;30.00;;;19.30;;
76826;SDS011;65788;52.284;20.890;2024-01-11T01:32:13;27.40;;;19.10;;
76826;SDS011;65788;52.284;20.890;2024-01-11T01:33:51;27.50;;;19.40;;
76826;SDS011;65788;52.284;20.890;2024-01-11T01:35:28;30.80;;;19.70;;
76826;SDS011;65788;52.284;20.890;2024-01-11T01:37:05;27.60;;;19.60;;
76826;SDS011;65788;52.284;20.890;2024-01-11T01:38:46;27.40;;;19.20;;
76826;SDS011;65788;52.284;20.890;2024-01-11T01:40:27;27.20;;;19.20;;
76826;SDS011;65788;52.284;20.890;2024-01-11T01:42:04;28.20;;;18.90;;
76826;SDS011;65788;52.284;20.890;2024-01-11T01:43:43;30.50;;;20.10;;
76826;SDS011;65788;52.284;20.890;2024-01-11T01:45:29;28.50;;;18.80;;
76826;SDS011;65788;52.284;20.890;2024-01-11T01:47:07;28.00;;;18.60;;
76826;SDS011;65788;52.284;20.890;2024-01-11T01:48:53;28.60;;;19.50;;
76826;SDS011;65788;52.284;20.890;2024-01-11T01:50:38;28.60;;;19.70;;
76826;SDS011;65788;52.284;20.890;2024-01-11T01:52:18;27.30;;;19.10;;
76826;SDS011;65788;52.284;20.890;2024-01-11T01:54:05;28.80;;;20.00;;
76826;SDS011;65788;52.284;20.890;2024-01-11T01:55:44;27.20;;;19.10;;
76826;SDS011;65788;52.284;20.890;2024-01-11T01:57:24;29.00;;;19.40;;
76826;SDS011;65788;52.284;20.890;2024-01-11T01:59:19;26.70;;;18.30;;
76826;SDS011;65788;52.284;20.890;2024-01-11T02:01:05;27.80;;;19.20;;
76826;SDS011;65788;52.284;20.890;2024-01-11T02:02:45;28.90;;;18.60;;
76826;SDS011;65788;52.284;20.890;2024-01-11T02:04:26;29.10;;;19.40;;
76826;SDS011;65788;52.284;20.890;2024-01-11T02:06:04;26.70;;;18.70;;
76826;SDS011;65788;52.284;20.890;2024-01-11T02:07:47;27.80;;;19.10;;
76826;SDS011;65788;52.284;20.890;2024-01-11T02:09:25;29.50;;;19.30;;
76826;SDS011;65788;52.284;20.890;2024-01-11T02:11:03;26.80;;;18.60;;
76826;SDS011;65788;52.284;20.890;2024-01-11T02:12:43;29.50;;;19.50;;
76826;SDS011;65788;52.284;20.890;2024-01-11T02:14:22;27.70;;;18.70;;
76826;SDS011;65788;52.284;20.890;2024-01-11T02:15:59;27.80;;;19.60;;
76826;SDS011;65788;52.284;20.890;2024-01-11T02:17:39;27.80;;;18.20;;
76826;SDS011;65788;52.284;20.890;2024-01-11T02:19:17;29.00;;;18.80;;
76826;SDS011;65788;52.284;20.890;2024-01-11T02:20:55;30.50;;;19.30;;
76826;SDS011;65788;52.284;20.890;2024-01-11T02:22:34;27.30;;;18.40;;
76826;SDS011;65788;52.284;20.890;2024-01-11T02:24:14;29.30;;;19.60;;
76826;SDS011;65788;52.284;20.890;2024-01-11T02:25:51;29.50;;;18.70;;
76826;SDS011;65788;52.284;20.890;2024-01-11T02:27:43;28.50;;;19.50;;
76826;SDS011;65788;52.284;20.890;2024-01-11T02:29:25;29.90;;;19.00;;
76826;SDS011;65788;52.284;20.890;2024-01-11T02:31:03;27.50;;;18.10;;
76826;SDS011;65788;52.284;20.890;2024-01-11T02:32:48;29.50;;;18.40;;
76826;SDS011;65788;52.284;20.890;2024-01-11T02:34:28;29.00;;;19.20;;
76826;SDS011;65788;52.284;20.890;2024-01-11T02:36:08;28.20;;;19.40;;
76826;SDS011;65788;52.284;20.890;2024-01-11T02:37:47;27.90;;;18.80;;
76826;SDS011;65788;52.284;20.890;2024-01-11T02:39:25;25.40;;;18.70;;
76826;SDS011;65788;52.284;20.890;2024-01-11T02:41:06;29.40;;;19.40;;
76826;SDS011;65788;52.284;20.890;2024-01-11T02:42:54;27.10;;;18.90;;
76826;SDS011;65788;52.284;20.890;2024-01-11T02:44:30;29.20;;;19.10;;
76826;SDS011;65788;52.284;20.890;2024-01-11T02:46:08;30.00;;;19.80;;
76826;SDS011;65788;52.284;20.890;2024-01-11T02:47:45;30.90;;;19.80;;
76826;SDS011;65788;52.284;20.890;2024-01-11T02:49:23;29.70;;;19.10;;
76826;SDS011;65788;52.284;20.890;2024-01-11T02:51:01;29.80;;;19.00;;
76826;SDS011;65788;52.284;20.890;2024-01-11T02:52:39;28.70;;;19.10;;
76826;SDS011;65788;52.284;20.890;2024-01-11T02:54:17;29.40;;;19.90;;
76826;SDS011;65788;52.284;20.890;2024-01-11T02:55:55;29.60;;;18.80;;
76826;SDS011;65788;52.284;20.890;2024-01-11T02:57:32;28.60;;;19.60;;
76826;SDS011;65788;52.284;20.890;2024-01-11T02:59:09;28.50;;;18.90;;
76826;SDS011;65788;52.284;20.890;2024-01-11T03:00:46;28.60;;;19.30;;
76826;SDS011;65788;52.284;20.890;2024-01-11T03:02:27;28.70;;;20.10;;
76826;SDS011;65788;52.284;20.890;2024-01-11T03:04:07;30.40;;;20.10;;
76826;SDS011;65788;52.284;20.890;2024-01-11T03:05:44;31.20;;;20.00;;
76826;SDS011;65788;52.284;20.890;2024-01-11T03:07:22;32.00;;;20.30;;
76826;SDS011;65788;52.284;20.890;2024-01-11T03:09:01;30.80;;;19.60;;
76826;SDS011;65788;52.284;20.890;2024-01-11T03:10:53;32.30;;;20.30;;
76826;SDS011;65788;52.284;20.890;2024-01-11T03:12:31;28.40;;;18.20;;
76826;SDS011;65788;52.284;20.890;2024-01-11T03:14:10;31.90;;;20.50;;
76826;SDS011;65788;52.284;20.890;2024-01-11T03:15:50;28.70;;;18.50;;
76826;SDS011;65788;52.284;20.890;2024-01-11T03:17:27;27.70;;;19.30;;
76826;SDS011;65788;52.284;20.890;2024-01-11T03:19:07;28.80;;;19.00;;
76826;SDS011;65788;52.284;20.890;2024-01-11T03:20:44;30.80;;;20.60;;
76826;SDS011;65788;52.284;20.890;2024-01-11T03:22:21;31.20;;;20.70;;
76826;SDS011;65788;52.284;20.890;2024-01-11T03:23:58;27.60;;;19.30;;
76826;SDS011;65788;52.284;20.890;2024-01-11T03:25:36;28.60;;;19.70;;
76826;SDS011;65788;52.284;20.890;2024-01-11T03:27:13;27.80;;;18.40;;
76826;SDS011;65788;52.284;20.890;2024-01-11T03:28:55;32.00;;;20.40;;
76826;SDS011;65788;52.284;20.890;2024-01-11T03:30:32;32.90;;;21.40;;
76826;SDS011;65788;52.284;20.890;2024-01-11T03:32:09;29.60;;;19.70;;
76826;SDS011;65788;52.284;20.890;2024-01-11T03:33:52;29.90;;;18.30;;
76826;SDS011;65788;52.284;20.890;2024-01-11T03:35:32;29.60;;;20.10;;
76826;SDS011;65788;52.284;20.890;2024-01-11T03:37:10;31.40;;;20.20;;
76826;SDS011;65788;52.284;20.890;2024-01-11T03:38:50;30.60;;;20.40;;
76826;SDS011;65788;52.284;20.890;2024-01-11T03:40:27;32.70;;;20.50;;
76826;SDS011;65788;52.284;20.890;2024-01-11T03:42:05;30.00;;;19.70;;
76826;SDS011;65788;52.284;20.890;2024-01-11T03:43:44;31.30;;;20.80;;
76826;SDS011;65788;52.284;20.890;2024-01-11T03:45:24;28.70;;;18.90;;
76826;SDS011;65788;52.284;20.890;2024-01-11T03:47:05;31.50;;;20.40;;
76826;SDS011;65788;52.284;20.890;2024-01-11T03:48:45;31.40;;;20.10;;
76826;SDS011;65788;52.284;20.890;2024-01-11T03:50:23;30.80;;;19.70;;
76826;SDS011;65788;52.284;20.890;2024-01-11T03:52:01;30.40;;;20.70;;
76826;SDS011;65788;52.284;20.890;2024-01-11T03:53:38;28.20;;;19.20;;
76826;SDS011;65788;52.284;20.890;2024-01-11T03:55:16;29.50;;;19.00;;
76826;SDS011;65788;52.284;20.890;2024-01-11T03:56:53;30.50;;;20.00;;
76826;SDS011;65788;52.284;20.890;2024-01-11T03:58:30;29.60;;;20.20;;
76826;SDS011;65788;52.284;20.890;2024-01-11T04:00:08;31.40;;;20.20;;
76826;SDS011;65788;52.284;20.890;2024-01-11T04:01:46;29.80;;;19.50;;
76826;SDS011;65788;52.284;20.890;2024-01-11T04:03:47;31.60;;;19.40;;
76826;SDS011;65788;52.284;20.890;2024-01-11T04:05:34;28.90;;;18.90;;
76826;SDS011;65788;52.284;20.890;2024-01-11T04:07:11;32.20;;;19.50;;
76826;SDS011;65788;52.284;20.890;2024-01-11T04:08:48;29.80;;;19.80;;
76826;SDS011;65788;52.284;20.890;2024-01-11T04:10:25;31.70;;;19.20;;
76826;SDS011;65788;52.284;20.890;2024-01-11T04:12:04;29.20;;;19.20;;
76826;SDS011;65788;52.284;20.890;2024-01-11T04:13:49;29.30;;;19.10;;
76826;SDS011;65788;52.284;20.890;2024-01-11T04:15:30;28.10;;;17.70;;
76826;SDS011;65788;52.284;20.890;2024-01-11T04:17:07;29.50;;;19.00;;
76826;SDS011;65788;52.284;20.890;2024-01-11T04:18:46;30.40;;;18.60;;
76826;SDS011;65788;52.284;20.890;2024-01-11T04:20:23;30.80;;;19.80;;
76826;SDS011;65788;52.284;20.890;2024-01-11T04:22:01;30.00;;;19.00;;
76826;SDS011;65788;52.284;20.890;2024-01-11T04:23:38;30.50;;;20.50;;
76826;SDS011;65788;52.284;20.890;2024-01-11T04:25:24;29.00;;;19.00;;
76826;SDS011;65788;52.284;20.890;2024-01-11T04:27:01;29.10;;;18.80;;
76826;SDS011;65788;52.284;20.890;2024-01-11T04:28:38;31.90;;;20.10;;
76826;SDS011;65788;52.284;20.890;2024-01-11T04:30:16;28.10;;;19.70;;
76826;SDS011;65788;52.284;20.890;2024-01-11T04:31:53;31.10;;;19.70;;
76826;SDS011;65788;52.284;20.890;2024-01-11T04:33:30;30.20;;;20.00;;
76826;SDS011;65788;52.284;20.890;2024-01-11T04:35:08;31.80;;;20.30;;
76826;SDS011;65788;52.284;20.890;2024-01-11T04:36:45;33.40;;;21.20;;
76826;SDS011;65788;52.284;20.890;2024-01-11T04:38:23;29.50;;;19.40;;
76826;SDS011;65788;52.284;20.890;2024-01-11T04:39:59;30.80;;;19.30;;
76826;SDS011;65788;52.284;20.890;2024-01-11T04:41:38;30.40;;;20.10;;
76826;SDS011;65788;52.284;20.890;2024-01-11T04:43:16;31.60;;;20.60;;
76826;SDS011;65788;52.284;20.890;2024-01-11T04:44:53;28.50;;;18.70;;
76826;SDS011;65788;52.284;20.890;2024-01-11T04:46:31;33.50;;;20.40;;
76826;SDS011;65788;52.284;20.890;2024-01-11T04:48:08;32.00;;;20.60;;
76826;SDS011;65788;52.284;20.890;2024-01-11T04:49:46;31.50;;;20.20;;
76826;SDS011;65788;52.284;20.890;2024-01-11T04:51:23;32.20;;;19.60;;
76826;SDS011;65788;52.284;20.890;2024-01-11T04:53:00;32.20;;;19.60;;
76826;SDS011;65788;52.284;20.890;2024-01-11T04:54:37;29.00;;;19.40;;
76826;SDS011;65788;52.284;20.890;2024-01-11T04:56:15;33.40;;;20.40;;
76826;SDS011;65788;52.284;20.890;2024-01-11T04:57:57;30.50;;;20.20;;
76826;SDS011;65788;52.284;20.890;2024-01-11T04:59:35;30.60;;;20.40;;
76826;SDS011;65788;52.284;20.890;2024-01-11T05:01:15;33.80;;;19.20;;
76826;SDS011;65788;52.284;20.890;2024-01-11T05:03:02;28.90;;;19.40;;
76826;SDS011;65788;52.284;20.890;2024-01-11T05:04:39;28.00;;;18.20;;
76826;SDS011;65788;52.284;20.890;2024-01-11T05:06:18;30.10;;;19.10;;
76826;SDS011;65788;52.284;20.890;2024-01-11T05:07:57;29.90;;;19.10;;
76826;SDS011;65788;52.284;20.890;2024-01-11T05:09:34;32.00;;;19.60;;
76826;SDS011;65788;52.284;20.890;2024-01-11T05:11:16;31.50;;;20.10;;
76826;SDS011;65788;52.284;20.890;2024-01-11T05:12:59;30.80;;;20.10;;
76826;SDS011;65788;52.284;20.890;2024-01-11T05:14:36;30.90;;;19.30;;
76826;SDS011;65788;52.284;20.890;2024-01-11T05:16:31;30.00;;;19.60;;
76826;SDS011;65788;52.284;20.890;2024-01-11T05:18:09;32.90;;;20.60;;
76826;SDS011;65788;52.284;20.890;2024-01-11T05:19:51;31.90;;;20.80;;
76826;SDS011;65788;52.284;20.890;2024-01-11T05:21:29;31.80;;;19.90;;
76826;SDS011;65788;52.284;20.890;2024-01-11T05:23:07;28.30;;;18.60;;
76826;SDS011;65788;52.284;20.890;2024-01-11T05:24:45;31.00;;;19.20;;
76826;SDS011;65788;52.284;20.890;2024-01-11T05:26:31;31.50;;;19.80;;
76826;SDS011;65788;52.284;20.890;2024-01-11T05:28:11;30.90;;;19.70;;
76826;SDS011;65788;52.284;20.890;2024-01-11T05:29:48;31.10;;;19.30;;
76826;SDS011;65788;52.284;20.890;2024-01-11T05:31:28;28.20;;;19.00;;
76826;SDS011;65788;52.284;20.890;2024-01-11T05:33:05;29.10;;;19.60;;
76826;SDS011;65788;52.284;20.890;2024-01-11T05:34:42;32.20;;;18.40;;
76826;SDS011;65788;52.284;20.890;2024-01-11T05:36:19;30.70;;;19.50;;
76826;SDS011;65788;52.284;20.890;2024-01-11T05:37:56;30.10;;;18.70;;
76826;SDS011;65788;52.284;20.890;2024-01-11T05:39:33;31.30;;;19.50;;
76826;SDS011;65788;52.284;20.890;2024-01-11T05:41:14;28.60;;;19.10;;
76826;SDS011;65788;52.284;20.890;2024-01-11T05:42:51;26.80;;;17.80;;
76826;SDS011;65788;52.284;20.890;2024-01-11T05:44:30;27.90;;;18.80;;
76826;SDS011;65788;52.284;20.890;2024-01-11T05:46:11;29.60;;;18.20;;
76826;SDS011;65788;52.284;20.890;2024-01-11T05:47:48;28.40;;;18.80;;
76826;SDS011;65788;52.284;20.890;2024-01-11T05:49:26;27.80;;;18.00;;
76826;SDS011;65788;52.284;20.890;2024-01-11T05:51:04;29.50;;;18.40;;
76826;SDS011;65788;52.284;20.890;2024-01-11T05:52:41;30.80;;;18.10;;
76826;SDS011;65788;52.284;20.890;2024-01-11T05:54:19;29.20;;;18.10;;
76826;SDS011;65788;52.284;20.890;2024-01-11T05:55:56;30.00;;;18.70;;
76826;SDS011;65788;52.284;20.890;2024-01-11T05:57:37;25.80;;;17.90;;
76826;SDS011;65788;52.284;20.890;2024-01-11T05:59:15;28.20;;;18.00;;
76826;SDS011;65788;52.284;20.890;2024-01-11T06:00:52;26.90;;;17.80;;
76826;SDS011;65788;52.284;20.890;2024-01-11T06:02:29;26.40;;;17.70;;
76826;SDS011;65788;52.284;20.890;2024-01-11T06:04:08;28.10;;;18.10;;
76826;SDS011;65788;52.284;20.890;2024-01-11T06:05:45;26.30;;;18.20;;
76826;SDS011;65788;52.284;20.890;2024-01-11T06:07:25;30.80;;;18.80;;
76826;SDS011;65788;52.284;20.890;2024-01-11T06:09:02;28.30;;;18.10;;
76826;SDS011;65788;52.284;20.890;2024-01-11T06:10:41;26.60;;;17.80;;
76826;SDS011;65788;52.284;20.890;2024-01-11T06:12:18;29.20;;;17.70;;
76826;SDS011;65788;52.284;20.890;2024-01-11T06:13:57;25.70;;;16.70;;
76826;SDS011;65788;52.284;20.890;2024-01-11T06:15:36;26.80;;;17.30;;
76826;SDS011;65788;52.284;20.890;2024-01-11T06:17:13;27.60;;;16.10;;
76826;SDS011;65788;52.284;20.890;2024-01-11T06:18:54;29.60;;;17.50;;
76826;SDS011;65788;52.284;20.890;2024-01-11T06:20:31;28.40;;;17.00;;
76826;SDS011;65788;52.284;20.890;2024-01-11T06:22:10;28.90;;;18.80;;
76826;SDS011;65788;52.284;20.890;2024-01-11T06:23:48;25.70;;;17.40;;
76826;SDS011;65788;52.284;20.890;2024-01-11T06:25:25;27.60;;;16.60;;
76826;SDS011;65788;52.284;20.890;2024-01-11T06:27:03;26.90;;;16.70;;
76826;SDS011;65788;52.284;20.890;2024-01-11T06:28:42;27.50;;;17.20;;
76826;SDS011;65788;52.284;20.890;2024-01-11T06:30:19;26.20;;;16.60;;
76826;SDS011;65788;52.284;20.890;2024-01-11T06:31:56;24.40;;;16.20;;
76826;SDS011;65788;52.284;20.890;2024-01-11T06:33:33;26.50;;;16.60;;
76826;SDS011;65788;52.284;20.890;2024-01-11T06:35:16;25.70;;;16.40;;
76826;SDS011;65788;52.284;20.890;2024-01-11T06:36:54;29.00;;;16.40;;
76826;SDS011;65788;52.284;20.890;2024-01-11T06:38:33;24.40;;;16.40;;
76826;SDS011;65788;52.284;20.890;2024-01-11T06:40:10;25.80;;;16.30;;
76826;SDS011;65788;52.284;20.890;2024-01-11T06:41:48;24.60;;;15.70;;
76826;SDS011;65788;52.284;20.890;2024-01-11T06:43:25;25.80;;;16.00;;
76826;SDS011;65788;52.284;20.890;2024-01-11T06:45:03;25.00;;;15.70;;
76826;SDS011;65788;52.284;20.890;2024-01-11T06:46:44;25.40;;;15.80;;
76826;SDS011;65788;52.284;20.890;2024-01-11T06:48:22;26.10;;;16.80;;
76826;SDS011;65788;52.284;20.890;2024-01-11T06:50:07;23.90;;;15.70;;
76826;SDS011;65788;52.284;20.890;2024-01-11T06:51:45;24.20;;;16.00;;
76826;SDS011;65788;52.284;20.890;2024-01-11T06:53:22;23.20;;;15.70;;
76826;SDS011;65788;52.284;20.890;2024-01-11T06:55:02;26.70;;;15.90;;
76826;SDS011;65788;52.284;20.890;2024-01-11T06:56:43;24.90;;;15.80;;
76826;SDS011;65788;52.284;20.890;2024-01-11T06:58:30;24.70;;;16.00;;
76826;SDS011;65788;52.284;20.890;2024-01-11T07:00:07;23.60;;;15.90;;
76826;SDS011;65788;52.284;20.890;2024-01-11T07:01:47;23.90;;;15.60;;
76826;SDS011;65788;52.284;20.890;2024-01-11T07:03:24;23.90;;;15.60;;
76826;SDS011;65788;52.284;20.890;2024-01-11T07:05:13;24.90;;;16.80;;
76826;SDS011;65788;52.284;20.890;2024-01-11T07:06:52;23.90;;;15.20;;
76826;SDS011;65788;52.284;20.890;2024-01-11T07:08:30;26.00;;;15.70;;
76826;SDS011;65788;52.284;20.890;2024-01-11T07:10:09;23.70;;;14.90;;
76826;SDS011;65788;52.284;20.890;2024-01-11T07:11:46;22.90;;;14.20;;
76826;SDS011;65788;52.284;20.890;2024-01-11T07:13:23;21.20;;;14.10;;
76826;SDS011;65788;52.284;20.890;2024-01-11T07:15:03;23.20;;;14.90;;
76826;SDS011;65788;52.284;20.890;2024-01-11T07:16:43;21.70;;;14.10;;
76826;SDS011;65788;52.284;20.890;2024-01-11T07:18:22;22.00;;;13.80;;
76826;SDS011;65788;52.284;20.890;2024-01-11T07:20:02;20.50;;;13.60;;
76826;SDS011;65788;52.284;20.890;2024-01-11T07:21:50;22.20;;;14.30;;
76826;SDS011;65788;52.284;20.890;2024-01-11T07:23:27;24.50;;;15.10;;
76826;SDS011;65788;52.284;20.890;2024-01-11T07:25:04;22.10;;;13.70;;
76826;SDS011;65788;52.284;20.890;2024-01-11T07:26:45;21.80;;;13.90;;
76826;SDS011;65788;52.284;20.890;2024-01-11T07:28:30;22.90;;;14.30;;
76826;SDS011;65788;52.284;20.890;2024-01-11T07:30:10;21.00;;;13.60;;
76826;SDS011;65788;52.284;20.890;2024-01-11T07:31:50;20.70;;;14.10;;
76826;SDS011;65788;52.284;20.890;2024-01-11T07:33:28;20.60;;;13.50;;
76826;SDS011;65788;52.284;20.890;2024-01-11T07:35:14;19.30;;;13.10;;
76826;SDS011;65788;52.284;20.890;2024-01-11T07:36:52;19.20;;;13.40;;
76826;SDS011;65788;52.284;20.890;2024-01-11T07:38:29;22.50;;;14.30;;
76826;SDS011;65788;52.284;20.890;2024-01-11T07:40:07;22.90;;;14.30;;
76826;SDS011;65788;52.284;20.890;2024-01-11T07:41:49;22.80;;;14.10;;
76826;SDS011;65788;52.284;20.890;2024-01-11T07:43:29;20.60;;;13.40;;
76826;SDS011;65788;52.284;20.890;2024-01-11T07:45:11;22.70;;;13.70;;
76826;SDS011;65788;52.284;20.890;2024-01-11T07:48:32;21.80;;;13.30;;
76826;SDS011;65788;52.284;20.890;2024-01-11T07:50:10;20.40;;;13.60;;
76826;SDS011;65788;52.284;20.890;2024-01-11T07:51:48;19.30;;;12.40;;
76826;SDS011;65788;52.284;20.890;2024-01-11T07:53:26;19.60;;;12.90;;
76826;SDS011;65788;52.284;20.890;2024-01-11T07:55:05;19.90;;;13.50;;
76826;SDS011;65788;52.284;20.890;2024-01-11T07:56:47;19.30;;;12.60;;
76826;SDS011;65788;52.284;20.890;2024-01-11T07:58:25;19.60;;;13.20;;
76826;SDS011;65788;52.284;20.890;2024-01-11T08:00:05;19.60;;;13.60;;
76826;SDS011;65788;52.284;20.890;2024-01-11T08:01:43;21.60;;;13.80;;
76826;SDS011;65788;52.284;20.890;2024-01-11T08:03:21;19.50;;;12.60;;
76826;SDS011;65788;52.284;20.890;2024-01-11T08:05:01;20.10;;;13.10;;
76826;SDS011;65788;52.284;20.890;2024-01-11T08:06:42;20.60;;;12.60;;
76826;SDS011;65788;52.284;20.890;2024-01-11T08:08:20;20.50;;;12.90;;
76826;SDS011;65788;52.284;20.890;2024-01-11T08:09:58;18.40;;;12.70;;
76826;SDS011;65788;52.284;20.890;2024-01-11T08:11:37;18.50;;;12.00;;
76826;SDS011;65788;52.284;20.890;2024-01-11T08:13:14;17.50;;;12.40;;
76826;SDS011;65788;52.284;20.890;2024-01-11T08:14:51;17.50;;;11.70;;
76826;SDS011;65788;52.284;20.890;2024-01-11T08:16:31;18.20;;;12.20;;
76826;SDS011;65788;52.284;20.890;2024-01-11T08:18:09;19.70;;;12.40;;
76826;SDS011;65788;52.284;20.890;2024-01-11T08:19:46;18.00;;;12.60;;
76826;SDS011;65788;52.284;20.890;2024-01-11T08:21:23;19.50;;;12.50;;
76826;SDS011;65788;52.284;20.890;2024-01-11T08:23:03;19.20;;;12.00;;
76826;SDS011;65788;52.284;20.890;2024-01-11T08:24:43;18.10;;;11.80;;
76826;SDS011;65788;52.284;20.890;2024-01-11T08:26:23;20.50;;;12.00;;
76826;SDS011;65788;52.284;20.890;2024-01-11T08:28:00;19.00;;;11.70;;
76826;SDS011;65788;52.284;20.890;2024-01-11T08:29:38;19.10;;;12.70;;
76826;SDS011;65788;52.284;20.890;2024-01-11T08:31:16;21.70;;;13.60;;
76826;SDS011;65788;52.284;20.890;2024-01-11T08:32:55;19.10;;;12.90;;
76826;SDS011;65788;52.284;20.890;2024-01-11T08:34:32;20.80;;;12.20;;
76826;SDS011;65788;52.284;20.890;2024-01-11T08:36:09;19.50;;;12.60;;
76826;SDS011;65788;52.284;20.890;2024-01-11T08:37:48;20.20;;;13.00;;
76826;SDS011;65788;52.284;20.890;2024-01-11T08:39:34;17.60;;;12.10;;
76826;SDS011;65788;52.284;20.890;2024-01-11T08:41:13;19.20;;;12.40;;
76826;SDS011;65788;52.284;20.890;2024-01-11T08:42:51;20.30;;;12.00;;
76826;SDS011;65788;52.284;20.890;2024-01-11T08:46:08;17.30;;;11.10;;
76826;SDS011;65788;52.284;20.890;2024-01-11T08:47:46;16.60;;;11.50;;
76826;SDS011;65788;52.284;20.890;2024-01-11T08:49:26;20.00;;;12.20;;
76826;SDS011;65788;52.284;20.890;2024-01-11T08:51:04;17.70;;;11.60;;
76826;SDS011;65788;52.284;20.890;2024-01-11T08:52:41;16.40;;;11.20;;
76826;SDS011;65788;52.284;20.890;2024-01-11T08:54:20;17.00;;;11.10;;
76826;SDS011;65788;52.284;20.890;2024-01-11T08:55:58;15.90;;;10.80;;
76826;SDS011;65788;52.284;20.890;2024-01-11T08:57:35;18.40;;;12.30;;
76826;SDS011;65788;52.284;20.890;2024-01-11T08:59:12;16.20;;;11.00;;
76826;SDS011;65788;52.284;20.890;2024-01-11T09:00:50;18.90;;;12.60;;
76826;SDS011;65788;52.284;20.890;2024-01-11T09:02:27;16.70;;;11.10;;
76826;SDS011;65788;52.284;20.890;2024-01-11T09:04:04;17.90;;;11.60;;
76826;SDS011;65788;52.284;20.890;2024-01-11T09:05:42;18.60;;;12.40;;
76826;SDS011;65788;52.284;20.890;2024-01-11T09:07:28;17.70;;;11.70;;
76826;SDS011;65788;52.284;20.890;2024-01-11T09:09:08;17.60;;;11.60;;
76826;SDS011;65788;52.284;20.890;2024-01-11T09:10:46;17.80;;;11.90;;
76826;SDS011;65788;52.284;20.890;2024-01-11T09:12:23;17.30;;;11.20;;
76826;SDS011;65788;52.284;20.890;2024-01-11T09:14:04;19.40;;;11.70;;
76826;SDS011;65788;52.284;20.890;2024-01-11T09:15:43;17.10;;;11.00;;
76826;SDS011;65788;52.284;20.890;2024-01-11T09:17:20;16.50;;;11.10;;
76826;SDS011;65788;52.284;20.890;2024-01-11T09:18:58;19.30;;;11.90;;
76826;SDS011;65788;52.284;20.890;2024-01-11T09:20:37;18.70;;;12.50;;
76826;SDS011;65788;52.284;20.890;2024-01-11T09:22:17;17.30;;;11.20;;
76826;SDS011;65788;52.284;20.890;2024-01-11T09:24:06;16.10;;;10.60;;
76826;SDS011;65788;52.284;20.890;2024-01-11T09:25:45;16.80;;;11.50;;
76826;SDS011;65788;52.284;20.890;2024-01-11T09:27:34;16.60;;;11.10;;
76826;SDS011;65788;52.284;20.890;2024-01-11T09:29:15;16.50;;;10.80;;
76826;SDS011;65788;52.284;20.890;2024-01-11T09:31:06;15.80;;;10.70;;
76826;SDS011;65788;52.284;20.890;2024-01-11T09:32:45;17.30;;;11.40;;
76826;SDS011;65788;52.284;20.890;2024-01-11T09:34:22;14.80;;;10.80;;
76826;SDS011;65788;52.284;20.890;2024-01-11T09:36:00;16.00;;;10.60;;
76826;SDS011;65788;52.284;20.890;2024-01-11T09:37:38;17.70;;;11.10;;
76826;SDS011;65788;52.284;20.890;2024-01-11T09:39:16;18.20;;;11.30;;